createdAt,value
2022-11-17T00:00:44.363Z,7.07
2022-11-17T00:03:15.583Z,5.33
2022-11-17T00:05:45.433Z,5.77
2022-11-17T00:08:13.328Z,6.97
2022-11-17T00:10:41.162Z,4.83
2022-11-17T00:13:28.611Z,4.93
2022-11-17T00:15:56.579Z,6.17
2022-11-17T00:18:41.682Z,5.10
2022-11-17T00:21:23.836Z,5.80
2022-11-17T00:23:51.894Z,5.17
2022-11-17T00:26:21.381Z,5.60
2022-11-17T00:28:51.950Z,5.37
2022-11-17T00:31:37.523Z,5.03
2022-11-17T00:34:08.475Z,4.90
2022-11-17T00:36:40.087Z,3.60
2022-11-17T00:39:08.385Z,5.67
2022-11-17T00:41:36.444Z,2.80
2022-11-17T00:44:04.846Z,5.37
2022-11-17T00:46:33.303Z,6.30
2022-11-17T00:49:01.237Z,5.13
2022-11-17T00:51:29.441Z,5.67
2022-11-17T00:53:58.648Z,9.13
2022-11-17T00:56:26.797Z,7.00
2022-11-17T00:58:54.807Z,5.03
2022-11-17T01:01:23.106Z,4.70
2022-11-17T01:03:51.192Z,3.60
2022-11-17T01:06:21.037Z,3.73
2022-11-17T01:08:48.838Z,4.57
2022-11-17T01:11:20.210Z,4.37
2022-11-17T01:13:48.888Z,5.23
2022-11-17T01:16:19.490Z,4.43
2022-11-17T01:18:50.008Z,3.63
2022-11-17T01:21:20.015Z,4.13
2022-11-17T01:23:48.783Z,3.10
2022-11-17T01:26:20.820Z,5.77
2022-11-17T01:28:49.667Z,3.20
2022-11-17T01:31:19.435Z,5.63
2022-11-17T01:33:48.019Z,3.33
2022-11-17T01:36:17.570Z,3.87
2022-11-17T01:38:46.172Z,4.67
2022-11-17T01:41:17.921Z,8.90
2022-11-17T01:43:50.517Z,4.37
2022-11-17T01:46:32.125Z,3.03
2022-11-17T01:49:04.700Z,4.73
2022-11-17T01:51:36.512Z,5.40
2022-11-17T01:54:04.697Z,5.93
2022-11-17T01:56:35.870Z,6.73
2022-11-17T01:59:12.534Z,4.70
2022-11-17T02:01:55.578Z,6.20
2022-11-17T02:04:25.643Z,5.60
2022-11-17T02:06:58.385Z,4.43
2022-11-17T02:09:27.150Z,4.07
2022-11-17T02:11:57.641Z,3.67
2022-11-17T02:14:26.890Z,3.93
2022-11-17T02:16:54.763Z,3.87
2022-11-17T02:19:23.781Z,3.53
2022-11-17T02:22:10.414Z,3.60
2022-11-17T02:25:00.629Z,3.40
2022-11-17T02:28:04.102Z,3.07
2022-11-17T02:30:38.994Z,4.80
2022-11-17T02:33:17.158Z,3.83
2022-11-17T02:35:51.022Z,6.00
2022-11-17T02:38:28.948Z,2.67
2022-11-17T02:41:02.808Z,3.87
2022-11-17T02:43:54.541Z,3.10
2022-11-17T02:46:25.069Z,5.73
2022-11-17T02:48:56.855Z,4.53
2022-11-17T02:51:25.747Z,4.30
2022-11-17T02:53:56.370Z,5.20
2022-11-17T02:56:24.680Z,3.93
2022-11-17T02:58:58.946Z,4.43
2022-11-17T03:01:49.085Z,5.03
2022-11-17T03:04:41.109Z,2.63
2022-11-17T03:07:21.686Z,4.77
2022-11-17T03:10:00.435Z,4.53
2022-11-17T03:12:35.165Z,3.50
2022-11-17T03:15:14.735Z,4.33
2022-11-17T03:17:49.719Z,4.47
2022-11-17T03:20:23.117Z,5.03
2022-11-17T03:22:58.148Z,4.90
2022-11-17T03:25:28.050Z,7.17
2022-11-17T03:28:00.331Z,4.43
2022-11-17T03:30:36.268Z,9.20
2022-11-17T03:33:11.548Z,6.23
2022-11-17T03:35:44.011Z,5.90
2022-11-17T03:38:19.676Z,2.70
2022-11-17T03:40:51.831Z,4.00
2022-11-17T03:43:21.427Z,4.37
2022-11-17T03:45:52.303Z,3.83
2022-11-17T03:48:25.658Z,3.87
2022-11-17T03:51:00.752Z,3.63
2022-11-17T03:53:30.609Z,4.80
2022-11-17T03:56:03.679Z,5.57
2022-11-17T03:58:37.762Z,3.53
2022-11-17T04:01:09.099Z,3.23
2022-11-17T04:03:38.245Z,4.60
2022-11-17T04:06:06.787Z,4.53
2022-11-17T04:08:34.526Z,6.77
2022-11-17T04:11:19.784Z,5.00
2022-11-17T04:14:05.275Z,3.73
2022-11-17T04:16:34.379Z,3.50
2022-11-17T04:19:02.094Z,3.20
2022-11-17T04:21:29.787Z,2.40
2022-11-17T04:23:57.871Z,3.70
2022-11-17T04:26:43.714Z,4.70
2022-11-17T04:29:11.471Z,4.03
2022-11-17T04:31:40.642Z,3.83
2022-11-17T04:34:08.357Z,3.73
2022-11-17T04:36:40.519Z,3.00
2022-11-17T04:39:08.278Z,5.13
2022-11-17T04:41:53.780Z,3.50
2022-11-17T04:44:23.410Z,4.67
2022-11-17T04:46:53.007Z,4.00
2022-11-17T04:49:21.755Z,4.30
2022-11-17T04:51:50.151Z,6.13
2022-11-17T04:54:19.944Z,3.40
2022-11-17T04:56:51.473Z,2.40
2022-11-17T04:59:19.340Z,2.17
2022-11-17T05:01:47.368Z,3.83
2022-11-17T05:04:39.219Z,2.47
2022-11-17T05:07:08.146Z,2.80
2022-11-17T05:09:36.489Z,1.60
2022-11-17T05:12:22.139Z,1.77
2022-11-17T05:14:50.519Z,2.47
2022-11-17T05:17:17.839Z,3.00
2022-11-17T05:19:48.722Z,2.03
2022-11-17T05:22:36.370Z,1.87
2022-11-17T05:25:05.577Z,3.40
2022-11-17T05:27:34.296Z,2.13
2022-11-17T05:30:02.149Z,2.13
2022-11-17T05:32:29.975Z,3.20
2022-11-17T05:34:59.226Z,2.10
2022-11-17T05:37:27.062Z,4.77
2022-11-17T05:39:54.940Z,3.83
2022-11-17T05:42:22.702Z,2.27
2022-11-17T05:44:50.461Z,2.00
2022-11-17T05:47:18.306Z,1.80
2022-11-17T05:49:46.042Z,2.23
2022-11-17T05:52:15.149Z,5.03
2022-11-17T05:54:43.120Z,4.33
2022-11-17T05:57:16.137Z,4.10
2022-11-17T05:59:46.812Z,3.50
2022-11-17T06:02:19.602Z,3.90
2022-11-17T06:04:50.404Z,3.10
2022-11-17T06:07:20.690Z,6.27
2022-11-17T06:09:53.062Z,5.73
2022-11-17T06:12:20.880Z,8.00
2022-11-17T06:14:48.648Z,3.17
2022-11-17T06:17:22.759Z,4.33
2022-11-17T06:19:56.095Z,7.33
2022-11-17T06:22:26.419Z,5.60
2022-11-17T06:24:55.261Z,4.10
2022-11-17T06:27:25.452Z,4.10
2022-11-17T06:29:54.814Z,5.20
2022-11-17T06:32:22.852Z,4.30
2022-11-17T06:34:55.609Z,4.47
2022-11-17T06:37:26.299Z,3.93
2022-11-17T06:39:54.884Z,5.70
2022-11-17T06:42:44.263Z,5.27
2022-11-17T06:45:12.948Z,11.27
2022-11-17T06:47:41.211Z,6.33
2022-11-17T06:50:09.559Z,5.80
2022-11-17T06:52:38.993Z,3.70
2022-11-17T06:55:08.593Z,4.40
2022-11-17T06:57:36.445Z,5.27
2022-11-17T07:00:06.003Z,2.93
2022-11-17T07:02:34.001Z,4.50
2022-11-17T07:05:01.997Z,6.23
2022-11-17T07:07:29.925Z,3.37
2022-11-17T07:09:59.200Z,6.43
2022-11-17T07:12:28.582Z,2.33
2022-11-17T07:14:56.700Z,3.53
2022-11-17T07:17:24.621Z,4.70
2022-11-17T07:19:53.563Z,3.40
2022-11-17T07:22:21.433Z,2.17
2022-11-17T07:24:49.374Z,3.50
2022-11-17T07:27:18.791Z,2.57
2022-11-17T07:29:46.772Z,3.83
2022-11-17T07:32:14.857Z,3.60
2022-11-17T07:34:42.719Z,5.03
2022-11-17T07:37:10.672Z,4.43
2022-11-17T07:39:38.483Z,2.97
2022-11-17T07:42:06.588Z,2.47
2022-11-17T07:44:36.205Z,2.80
2022-11-17T07:47:04.163Z,3.57
2022-11-17T07:49:32.194Z,3.53
2022-11-17T07:52:00.028Z,6.17
2022-11-17T07:54:27.890Z,3.43
2022-11-17T07:56:55.730Z,3.23
2022-11-17T07:59:23.790Z,3.97
2022-11-17T08:01:52.983Z,3.07
2022-11-17T08:04:20.902Z,5.07
2022-11-17T08:06:48.981Z,3.00
2022-11-17T08:09:17.379Z,5.20
2022-11-17T08:11:45.269Z,5.13
2022-11-17T08:14:13.130Z,7.30
2022-11-17T08:16:41.027Z,3.17
2022-11-17T08:19:11.912Z,3.90
2022-11-17T08:21:41.075Z,6.33
2022-11-17T08:24:09.551Z,3.27
2022-11-17T08:26:37.357Z,8.70
2022-11-17T08:29:05.287Z,6.10
2022-11-17T08:31:33.879Z,5.67
2022-11-17T08:34:01.683Z,3.23
2022-11-17T08:36:30.835Z,9.93
2022-11-17T08:38:58.894Z,2.63
2022-11-17T08:41:27.108Z,3.90
2022-11-17T08:43:55.029Z,4.07
2022-11-17T08:46:23.039Z,6.97
2022-11-17T08:48:53.877Z,5.23
2022-11-17T08:51:25.108Z,2.50
2022-11-17T08:53:54.261Z,4.77
2022-11-17T08:56:22.239Z,4.67
2022-11-17T08:58:50.077Z,3.13
2022-11-17T09:01:18.301Z,3.83
2022-11-17T09:03:48.419Z,2.90
2022-11-17T09:06:17.243Z,5.63
2022-11-17T09:08:47.012Z,4.57
2022-11-17T09:11:16.990Z,2.70
2022-11-17T09:13:45.815Z,4.63
2022-11-17T09:16:14.303Z,2.40
2022-11-17T09:18:42.348Z,3.60
2022-11-17T09:21:12.589Z,3.03
2022-11-17T09:23:40.753Z,3.70
2022-11-17T09:26:10.623Z,5.47
2022-11-17T09:28:40.229Z,2.77
2022-11-17T09:31:09.634Z,2.70
2022-11-17T09:33:37.791Z,1.97
2022-11-17T09:36:07.343Z,6.63
2022-11-17T09:38:35.875Z,5.97
2022-11-17T09:41:13.115Z,3.13
2022-11-17T09:43:48.010Z,3.53
2022-11-17T09:46:22.405Z,4.50
2022-11-17T09:48:58.318Z,4.00
2022-11-17T09:51:28.779Z,2.40
2022-11-17T09:54:02.727Z,3.97
2022-11-17T09:56:31.798Z,5.67
2022-11-17T09:59:05.359Z,5.73
2022-11-17T10:01:33.310Z,3.53
2022-11-17T10:04:01.498Z,1.93
2022-11-17T10:06:31.306Z,3.67
2022-11-17T10:09:02.809Z,6.27
2022-11-17T10:11:33.294Z,4.87
2022-11-17T10:14:14.040Z,3.57
2022-11-17T10:16:44.351Z,3.93
2022-11-17T10:19:17.032Z,4.80
2022-11-17T10:21:45.344Z,2.47
2022-11-17T10:24:33.688Z,3.30
2022-11-17T10:27:02.139Z,5.33
2022-11-17T10:29:31.382Z,5.67
2022-11-17T10:31:59.796Z,4.60
2022-11-17T10:34:40.189Z,4.30
2022-11-17T10:37:25.299Z,6.00
2022-11-17T10:40:13.760Z,8.00
2022-11-17T10:42:44.835Z,6.30
2022-11-17T10:45:18.966Z,5.90
2022-11-17T10:47:46.901Z,4.13
2022-11-17T10:50:24.775Z,5.30
2022-11-17T10:52:54.106Z,2.83
2022-11-17T10:55:27.743Z,5.70
2022-11-17T10:57:59.769Z,3.63
2022-11-17T11:00:32.237Z,5.10
2022-11-17T11:03:18.402Z,3.57
2022-11-17T11:06:02.432Z,6.13
2022-11-17T11:08:37.242Z,4.33
2022-11-17T11:11:12.599Z,2.87
2022-11-17T11:13:46.884Z,6.20
2022-11-17T11:16:16.043Z,7.50
2022-11-17T11:18:43.862Z,5.17
2022-11-17T11:21:19.219Z,3.47
2022-11-17T11:23:55.034Z,4.17
2022-11-17T11:26:42.270Z,2.53
2022-11-17T11:29:18.203Z,9.17
2022-11-17T11:31:59.105Z,3.97
2022-11-17T11:34:53.175Z,2.80
2022-11-17T11:37:23.349Z,4.83
2022-11-17T11:39:58.879Z,3.00
2022-11-17T11:42:47.811Z,6.70
2022-11-17T11:45:24.157Z,5.77
2022-11-17T11:48:14.810Z,4.10
2022-11-17T11:50:51.765Z,4.80
2022-11-17T11:53:26.172Z,3.40
2022-11-17T11:56:08.615Z,4.53
2022-11-17T11:58:43.835Z,6.43
2022-11-17T12:01:13.664Z,4.57
2022-11-17T12:03:49.259Z,6.30
2022-11-17T12:06:43.918Z,3.10
2022-11-17T12:09:29.787Z,5.83
2022-11-17T12:12:02.417Z,3.63
2022-11-17T12:14:32.097Z,4.87
2022-11-17T12:17:07.411Z,4.27
2022-11-17T12:19:51.156Z,7.23
2022-11-17T12:22:42.620Z,4.50
2022-11-17T12:25:18.205Z,5.20
2022-11-17T12:27:48.663Z,7.77
2022-11-17T12:30:54.635Z,5.63
2022-11-17T12:33:23.450Z,4.73
2022-11-17T12:36:30.910Z,4.17
2022-11-17T12:39:01.684Z,3.93
2022-11-17T12:42:07.647Z,2.73
2022-11-17T12:45:02.034Z,6.33
2022-11-17T12:47:33.458Z,2.80
2022-11-17T12:50:28.138Z,3.37
2022-11-17T12:53:19.479Z,3.47
2022-11-17T12:56:21.297Z,3.07
2022-11-17T12:59:17.014Z,2.47
2022-11-17T13:01:52.823Z,2.67
2022-11-17T13:04:26.044Z,1.17
2022-11-17T13:07:02.103Z,3.27
2022-11-17T13:09:31.282Z,3.90
2022-11-17T13:12:02.187Z,4.13
2022-11-17T13:14:31.764Z,3.33
2022-11-17T13:17:01.373Z,2.03
2022-11-17T13:19:33.767Z,4.00
2022-11-17T13:22:03.671Z,2.13
2022-11-17T13:24:34.399Z,3.00
2022-11-17T13:27:07.363Z,4.07
2022-11-17T13:29:35.472Z,2.90
2022-11-17T13:32:23.167Z,3.07
2022-11-17T13:34:53.477Z,3.00
2022-11-17T13:37:23.291Z,4.03
2022-11-17T13:40:00.219Z,3.37
2022-11-17T13:42:32.310Z,4.97
2022-11-17T13:45:03.633Z,3.33
2022-11-17T13:47:46.798Z,4.27
2022-11-17T13:50:33.821Z,2.93
2022-11-17T13:53:05.726Z,2.77
2022-11-17T13:55:34.690Z,6.50
2022-11-17T13:58:08.149Z,2.70
2022-11-17T14:00:36.721Z,2.20
2022-11-17T14:03:07.095Z,2.40
2022-11-17T14:05:35.107Z,3.13
2022-11-17T14:08:14.092Z,6.00
2022-11-17T14:10:42.685Z,3.40
2022-11-17T14:13:24.213Z,4.23
2022-11-17T14:15:55.232Z,2.57
2022-11-17T14:18:28.967Z,3.53
2022-11-17T14:21:11.837Z,4.00
2022-11-17T14:23:40.312Z,4.50
2022-11-17T14:26:18.350Z,4.30
2022-11-17T14:28:48.620Z,4.27
2022-11-17T14:31:17.203Z,3.23
2022-11-17T14:33:45.159Z,4.80
2022-11-17T14:36:15.836Z,2.63
2022-11-17T14:38:44.711Z,1.60
2022-11-17T14:41:12.596Z,2.87
2022-11-17T14:43:40.493Z,3.87
2022-11-17T14:46:16.305Z,3.20
2022-11-17T14:48:44.188Z,2.83
2022-11-17T14:51:12.197Z,3.63
2022-11-17T14:53:42.019Z,4.57
2022-11-17T14:56:11.124Z,7.40
2022-11-17T14:58:39.007Z,4.50
2022-11-17T15:01:13.063Z,3.60
2022-11-17T15:03:40.951Z,3.80
2022-11-17T15:06:12.064Z,3.80
2022-11-17T15:08:41.804Z,5.23
2022-11-17T15:11:14.755Z,5.97
2022-11-17T15:13:42.566Z,3.77
2022-11-17T15:16:12.533Z,3.57
2022-11-17T15:18:40.303Z,7.17
2022-11-17T15:21:33.776Z,6.70
2022-11-17T15:24:03.299Z,4.67
2022-11-17T15:26:31.430Z,3.03
2022-11-17T15:28:59.248Z,4.07
2022-11-17T15:31:28.787Z,4.87
2022-11-17T15:33:56.665Z,4.10
2022-11-17T15:36:25.206Z,4.93
2022-11-17T15:38:54.060Z,6.00
2022-11-17T15:41:22.235Z,6.27
2022-11-17T15:43:50.036Z,8.07
2022-11-17T15:46:19.888Z,6.77
2022-11-17T15:48:52.294Z,6.30
2022-11-17T15:51:22.073Z,9.13
2022-11-17T15:53:52.100Z,9.30
2022-11-17T15:56:21.658Z,8.90
2022-11-17T15:58:55.686Z,8.03
2022-11-17T16:01:28.169Z,7.70
2022-11-17T16:04:01.346Z,5.20
2022-11-17T16:06:29.195Z,4.93
2022-11-17T16:08:57.520Z,4.87
2022-11-17T16:11:26.864Z,5.90
2022-11-17T16:13:55.380Z,5.83
2022-11-17T16:16:24.239Z,5.20
2022-11-17T16:18:52.147Z,4.47
2022-11-17T16:21:21.470Z,4.70
2022-11-17T16:23:51.612Z,4.60
2022-11-17T16:26:20.512Z,3.13
2022-11-17T16:28:48.714Z,4.17
2022-11-17T16:31:19.322Z,8.30
2022-11-17T16:33:51.451Z,6.77
2022-11-17T16:36:21.914Z,7.87
2022-11-17T16:39:13.331Z,9.50
2022-11-17T16:41:42.817Z,5.83
2022-11-17T16:44:12.562Z,4.50
2022-11-17T16:46:43.257Z,5.50
2022-11-17T16:49:24.432Z,6.07
2022-11-17T16:51:54.797Z,6.30
2022-11-17T16:54:26.121Z,4.23
2022-11-17T16:56:54.361Z,3.80
2022-11-17T16:59:22.700Z,5.20
2022-11-17T17:01:50.536Z,4.30
2022-11-17T17:04:18.483Z,2.87
2022-11-17T17:06:46.533Z,3.57
2022-11-17T17:09:17.188Z,5.27
2022-11-17T17:11:46.094Z,4.73
2022-11-17T17:14:15.734Z,7.13
2022-11-17T17:16:44.165Z,5.53
2022-11-17T17:19:14.084Z,4.57
2022-11-17T17:21:43.194Z,5.77
2022-11-17T17:24:11.808Z,7.27
2022-11-17T17:26:41.170Z,5.70
2022-11-17T17:29:09.461Z,6.17
2022-11-17T17:31:39.308Z,3.43
2022-11-17T17:34:08.496Z,3.83
2022-11-17T17:36:38.407Z,5.30
2022-11-17T17:39:07.642Z,2.63
2022-11-17T17:41:41.882Z,3.30
2022-11-17T17:44:15.961Z,5.43
2022-11-17T17:46:47.196Z,5.27
2022-11-17T17:49:15.873Z,5.63
2022-11-17T17:51:45.333Z,3.90
2022-11-17T17:54:16.838Z,6.77
2022-11-17T17:56:45.487Z,5.33
2022-11-17T17:59:15.955Z,5.53
2022-11-17T18:01:46.016Z,5.93
2022-11-17T18:04:16.178Z,4.70
2022-11-17T18:06:47.329Z,5.00
2022-11-17T18:09:19.057Z,8.27
2022-11-17T18:11:49.558Z,3.73
2022-11-17T18:14:23.799Z,6.57
2022-11-17T18:16:52.576Z,5.80
2022-11-17T18:19:20.722Z,7.70
2022-11-17T18:21:48.954Z,4.53
2022-11-17T18:24:24.179Z,6.83
2022-11-17T18:26:53.793Z,10.03
2022-11-17T18:29:26.810Z,8.10
2022-11-17T18:31:59.553Z,6.97
2022-11-17T18:34:34.151Z,6.30
2022-11-17T18:37:06.360Z,4.47
2022-11-17T18:39:34.727Z,7.90
2022-11-17T18:42:02.709Z,8.53
2022-11-17T18:44:32.064Z,8.30
2022-11-17T18:47:02.999Z,6.27
2022-11-17T18:49:31.753Z,5.40
2022-11-17T18:51:59.621Z,13.07
2022-11-17T18:54:27.485Z,6.67
2022-11-17T18:56:56.231Z,7.47
2022-11-17T18:59:24.220Z,14.33
2022-11-17T19:01:53.672Z,7.47
2022-11-17T19:04:21.630Z,10.10
2022-11-17T19:06:50.236Z,10.10
2022-11-17T19:09:18.624Z,11.67
2022-11-17T19:11:47.115Z,5.77
2022-11-17T19:14:15.074Z,7.27
2022-11-17T19:16:45.459Z,8.03
2022-11-17T19:19:17.716Z,7.80
2022-11-17T19:21:46.136Z,9.67
2022-11-17T19:24:15.375Z,8.90
2022-11-17T19:26:43.387Z,12.23
2022-11-17T19:29:17.064Z,12.57
2022-11-17T19:31:45.681Z,9.97
2022-11-17T19:34:15.179Z,11.77
2022-11-17T19:36:44.480Z,10.27
2022-11-17T19:39:13.502Z,12.43
2022-11-17T19:41:41.767Z,13.37
2022-11-17T19:44:10.347Z,13.07
2022-11-17T19:46:38.951Z,12.43
2022-11-17T19:49:08.799Z,13.73
2022-11-17T19:51:38.628Z,12.70
2022-11-17T19:54:08.669Z,13.40
2022-11-17T19:56:38.301Z,12.40
2022-11-17T19:59:15.359Z,12.20
2022-11-17T20:01:44.453Z,13.13
2022-11-17T20:04:12.599Z,15.67
2022-11-17T20:06:41.822Z,14.93
2022-11-17T20:09:11.365Z,20.00
2022-11-17T20:11:39.542Z,30.40
2022-11-17T20:14:07.795Z,16.10
2022-11-17T20:16:36.747Z,16.17
2022-11-17T20:19:04.700Z,21.23
2022-11-17T20:21:33.650Z,18.87
2022-11-17T20:24:03.296Z,19.50
2022-11-17T20:26:33.155Z,21.37
2022-11-17T20:29:01.997Z,19.13
2022-11-17T20:31:32.451Z,13.17
2022-11-17T20:34:01.487Z,17.23
2022-11-17T20:36:30.831Z,17.37
2022-11-17T20:39:01.254Z,22.33
2022-11-17T20:41:30.819Z,17.83
2022-11-17T20:44:00.413Z,25.37
2022-11-17T20:46:29.117Z,19.87
2022-11-17T20:48:56.978Z,20.40
2022-11-17T20:51:26.212Z,18.10
2022-11-17T20:53:54.570Z,17.87
2022-11-17T20:56:22.753Z,19.80
2022-11-17T20:58:52.029Z,16.70
2022-11-17T21:01:24.001Z,18.03
2022-11-17T21:03:52.143Z,16.53
2022-11-17T21:06:22.856Z,20.00
2022-11-17T21:08:50.790Z,15.90
2022-11-17T21:11:34.320Z,12.70
2022-11-17T21:14:04.755Z,12.93
2022-11-17T21:16:33.232Z,14.90
2022-11-17T21:19:01.159Z,21.93
2022-11-17T21:21:29.512Z,15.00
2022-11-17T21:23:57.535Z,15.73
2022-11-17T21:26:25.447Z,14.77
2022-11-17T21:28:53.734Z,12.20
2022-11-17T21:31:24.837Z,13.53
2022-11-17T21:33:54.677Z,15.73
2022-11-17T21:36:24.611Z,15.03
2022-11-17T21:38:52.939Z,17.43
2022-11-17T21:41:22.994Z,18.00
2022-11-17T21:43:52.842Z,17.13
2022-11-17T21:46:23.658Z,16.33
2022-11-17T21:48:52.774Z,16.60
2022-11-17T21:51:22.165Z,19.10
2022-11-17T21:53:53.965Z,17.63
2022-11-17T21:56:26.181Z,16.00
2022-11-17T21:58:55.647Z,17.00
2022-11-17T22:01:27.850Z,17.17
2022-11-17T22:03:56.530Z,17.27
2022-11-17T22:06:25.635Z,18.20
2022-11-17T22:08:57.163Z,18.27
2022-11-17T22:11:36.691Z,13.93
2022-11-17T22:14:07.418Z,15.00
2022-11-17T22:16:38.277Z,14.50
2022-11-17T22:19:08.063Z,12.20
2022-11-17T22:21:36.503Z,12.90
2022-11-17T22:24:04.980Z,17.50
2022-11-17T22:26:35.695Z,14.57
2022-11-17T22:29:03.735Z,15.30
2022-11-17T22:31:31.921Z,16.40
2022-11-17T22:34:01.122Z,15.83
2022-11-17T22:36:29.011Z,16.23
2022-11-17T22:38:56.856Z,18.57
2022-11-17T22:41:25.203Z,13.47
2022-11-17T22:43:54.736Z,16.97
2022-11-17T22:46:24.604Z,12.67
2022-11-17T22:48:53.139Z,14.33
2022-11-17T22:51:36.583Z,14.23
2022-11-17T22:54:04.818Z,17.10
2022-11-17T22:56:33.501Z,14.97
2022-11-17T22:59:01.626Z,14.63
2022-11-17T23:01:29.989Z,18.50
2022-11-17T23:03:58.155Z,16.53
2022-11-17T23:06:28.475Z,15.93
2022-11-17T23:08:57.986Z,15.70
2022-11-17T23:11:42.335Z,15.00
2022-11-17T23:14:12.542Z,18.57
2022-11-17T23:16:41.157Z,13.43
2022-11-17T23:19:12.281Z,15.77
2022-11-17T23:21:43.242Z,17.87
2022-11-17T23:24:12.725Z,13.10
2022-11-17T23:26:41.000Z,14.53
2022-11-17T23:29:10.330Z,15.20
2022-11-17T23:31:38.222Z,15.40
2022-11-17T23:34:06.068Z,12.33
2022-11-17T23:36:34.294Z,14.67
2022-11-17T23:39:04.507Z,19.17
2022-11-17T23:41:32.919Z,11.47
2022-11-17T23:44:01.680Z,16.93
2022-11-17T23:46:29.933Z,15.00
2022-11-17T23:48:58.444Z,15.90
2022-11-17T23:51:29.751Z,18.23
2022-11-17T23:53:59.177Z,15.77
2022-11-17T23:56:33.716Z,15.17
2022-11-17T23:59:04.512Z,17.97
